Time;durP1;ratioP1;P1;durP2;ratioP2;P2;SDS_P1;SDS_P2;PMS_P1;PMS_P2;Temp;Humidity;BMP_temperature;BMP_pressure;BME280_temperature;BME280_humidity;BME280_pressure;Samples;Min_cycle;Max_cycle;Signal;HPM_P1;HPM_P2
2023/03/12 00:01:17;;;;;;;;;;;4.50;80.40;;;;;;5090961;28;19914;-36
2023/03/12 00:03:42;;;;;;;;;;;4.50;80.30;;;;;;5090777;28;20352;-34
2023/03/12 00:06:08;;;;;;;;;;;4.50;80.20;;;;;;5090895;28;20014;-36
2023/03/12 00:08:33;;;;;;;;;;;4.50;80.20;;;;;;5090726;28;19916;-35
2023/03/12 00:10:59;;;;;;;;;;;4.50;80.10;;;;;;5090805;28;20005;-34
2023/03/12 00:13:24;;;;;;;;;;;4.50;80.00;;;;;;5090668;28;19920;-36
2023/03/12 00:15:50;;;;;;;;;;;4.50;80.00;;;;;;5090765;28;20403;-35
2023/03/12 00:18:15;;;;;;;;;;;4.50;79.80;;;;;;5090719;28;19919;-36
2023/03/12 00:20:41;;;;;;;;;;;4.50;79.80;;;;;;5091440;28;19933;-36
2023/03/12 00:23:06;;;;;;;;;;;4.60;79.80;;;;;;5094901;28;20287;-36
2023/03/12 00:25:32;;;;;;;;;;;4.60;79.80;;;;;;5093340;28;20588;-35
2023/03/12 00:27:57;;;;;;;;;;;4.60;79.80;;;;;;5094671;28;19909;-36
2023/03/12 00:30:23;;;;;;;;;;;4.60;79.60;;;;;;5094853;28;20330;-35
2023/03/12 00:32:48;;;;;;;;;;;4.60;79.60;;;;;;5094735;28;19924;-35
2023/03/12 00:35:14;;;;;;;;;;;4.60;79.50;;;;;;5094612;28;19991;-35
2023/03/12 00:37:39;;;;;;;;;;;4.60;79.50;;;;;;5094688;28;19908;-35
2023/03/12 00:40:07;;;;;;;;;;;4.60;79.40;;;;;;5094590;28;19922;-38
2023/03/12 00:42:32;;;;;;;;;;;4.60;79.40;;;;;;5094374;28;20237;-32
2023/03/12 00:44:58;;;;;;;;;;;4.60;79.40;;;;;;5094545;28;20025;-36
2023/03/12 00:47:23;;;;;;;;;;;4.60;79.40;;;;;;5092725;28;19931;-36
2023/03/12 00:49:49;;;;;;;;;;;4.60;79.40;;;;;;5094486;28;19919;-37
2023/03/12 00:52:14;;;;;;;;;;;4.60;79.40;;;;;;5094186;28;19965;-37
2023/03/12 00:54:40;;;;;;;;;;;4.60;79.30;;;;;;5094235;28;19908;-37
2023/03/12 00:57:05;;;;;;;;;;;4.60;79.30;;;;;;5094202;28;19908;-37
2023/03/12 00:59:31;;;;;;;;;;;4.60;79.20;;;;;;5092843;28;19915;-34
2023/03/12 01:01:56;;;;;;;;;;;4.60;79.20;;;;;;5092755;28;19908;-36
2023/03/12 01:04:22;;;;;;;;;;;4.60;79.10;;;;;;5094219;28;20053;-35
2023/03/12 01:06:47;;;;;;;;;;;4.60;79.10;;;;;;5094035;28;19970;-36
2023/03/12 01:09:13;;;;;;;;;;;4.70;79.20;;;;;;5093834;28;19916;-34
2023/03/12 01:11:38;;;;;;;;;;;4.60;79.00;;;;;;5094078;28;20274;-34
2023/03/12 01:14:05;;;;;;;;;;;4.70;79.00;;;;;;5093615;28;20024;-35
2023/03/12 01:16:30;;;;;;;;;;;4.70;79.00;;;;;;5093796;28;19916;-36
2023/03/12 01:18:57;;;;;;;;;;;4.70;79.00;;;;;;5094024;28;19919;-36
2023/03/12 01:21:22;;;;;;;;;;;4.70;78.90;;;;;;5093764;28;19916;-37
2023/03/12 01:23:48;;;;;;;;;;;4.60;78.90;;;;;;5093771;28;20379;-37
2023/03/12 01:26:13;;;;;;;;;;;4.70;79.00;;;;;;5091959;28;20291;-37
2023/03/12 01:28:39;;;;;;;;;;;4.70;78.90;;;;;;5093472;28;19999;-36
2023/03/12 01:31:15;;;;;;;;;;;4.70;78.90;;;;;;5093520;28;19919;-36
2023/03/12 01:33:40;;;;;;;;;;;4.60;78.80;;;;;;5093408;28;19916;-37
2023/03/12 01:36:19;;;;;;;;;;;4.60;78.80;;;;;;5093455;28;19908;-37
2023/03/12 01:38:45;;;;;;;;;;;4.60;78.80;;;;;;5093461;28;19937;-39
2023/03/12 01:41:11;;;;;;;;;;;4.60;78.80;;;;;;5093334;28;19930;-35
2023/03/12 01:43:37;;;;;;;;;;;4.60;78.80;;;;;;5093501;28;20002;-37
2023/03/12 01:46:20;;;;;;;;;;;4.60;78.80;;;;;;5093254;28;19974;-33
2023/03/12 01:48:48;;;;;;;;;;;4.50;78.80;;;;;;5093309;28;19915;-36
2023/03/12 01:51:14;;;;;;;;;;;4.50;78.90;;;;;;5093215;28;19915;-35
2023/03/12 01:53:42;;;;;;;;;;;4.50;78.90;;;;;;5093002;28;19912;-35
2023/03/12 01:56:07;;;;;;;;;;;4.40;78.90;;;;;;5093032;28;20030;-37
2023/03/12 01:58:34;;;;;;;;;;;4.50;79.00;;;;;;5092856;28;19956;-37
2023/03/12 02:01:00;;;;;;;;;;;4.40;79.00;;;;;;5093139;28;19953;-36
2023/03/12 02:03:26;;;;;;;;;;;4.40;79.10;;;;;;5092835;28;19922;-36
2023/03/12 02:06:00;;;;;;;;;;;4.40;79.10;;;;;;5092958;28;19908;-36
2023/03/12 02:08:26;;;;;;;;;;;4.40;79.10;;;;;;5092619;28;19908;-36
2023/03/12 02:10:51;;;;;;;;;;;4.40;79.10;;;;;;5092818;28;20369;-36
2023/03/12 02:13:17;;;;;;;;;;;4.50;79.00;;;;;;5093009;28;19912;-36
2023/03/12 02:15:42;;;;;;;;;;;4.50;79.00;;;;;;5092776;28;19908;-37
2023/03/12 02:18:10;;;;;;;;;;;4.50;79.00;;;;;;5091381;28;20344;-37
2023/03/12 02:20:44;;;;;;;;;;;4.50;79.00;;;;;;5092507;28;19908;-37
2023/03/12 02:23:17;;;;;;;;;;;4.50;78.90;;;;;;5092518;28;20007;-35
2023/03/12 02:25:45;;;;;;;;;;;4.50;78.80;;;;;;5092401;28;20291;-36
2023/03/12 02:28:15;;;;;;;;;;;4.60;78.90;;;;;;5092207;28;19927;-34
2023/03/12 02:30:42;;;;;;;;;;;4.60;78.80;;;;;;5092451;28;19916;-37
2023/03/12 02:33:09;;;;;;;;;;;4.60;78.80;;;;;;5092724;28;20057;-37
2023/03/12 02:35:34;;;;;;;;;;;4.60;78.80;;;;;;5092405;28;19912;-37
2023/03/12 02:38:00;;;;;;;;;;;4.60;78.70;;;;;;5092361;28;19908;-36
2023/03/12 02:40:41;;;;;;;;;;;4.70;78.80;;;;;;5092305;28;19908;-36
2023/03/12 02:43:08;;;;;;;;;;;4.70;78.80;;;;;;5091709;28;19908;-37
2023/03/12 02:45:34;;;;;;;;;;;4.70;78.70;;;;;;5091888;28;19912;-36
2023/03/12 02:48:00;;;;;;;;;;;4.70;78.70;;;;;;5092368;28;20007;-37
2023/03/12 02:50:26;;;;;;;;;;;4.70;78.70;;;;;;5092039;28;19908;-37
2023/03/12 02:52:51;;;;;;;;;;;4.70;78.60;;;;;;5092042;28;20007;-35
2023/03/12 02:55:17;;;;;;;;;;;4.70;78.60;;;;;;5091863;28;20349;-36
2023/03/12 02:57:42;;;;;;;;;;;4.70;78.60;;;;;;5092007;28;19921;-35
2023/03/12 03:00:12;;;;;;;;;;;4.70;78.50;;;;;;5092013;28;19909;-37
2023/03/12 03:02:39;;;;;;;;;;;4.70;78.50;;;;;;5092127;28;19912;-37
2023/03/12 03:05:05;;;;;;;;;;;4.70;78.40;;;;;;5091824;28;20018;-34
2023/03/12 03:07:31;;;;;;;;;;;4.70;78.40;;;;;;5091593;28;20287;-36
2023/03/12 03:10:02;;;;;;;;;;;4.80;78.40;;;;;;5091754;28;19908;-38
2023/03/12 03:12:28;;;;;;;;;;;4.80;78.30;;;;;;5091614;28;19916;-36
2023/03/12 03:14:54;;;;;;;;;;;4.80;78.30;;;;;;5091563;28;19908;-39
2023/03/12 03:17:22;;;;;;;;;;;4.80;78.20;;;;;;5091621;28;19914;-37
2023/03/12 03:19:47;;;;;;;;;;;4.80;78.20;;;;;;5091556;28;19908;-36
2023/03/12 03:22:13;;;;;;;;;;;4.80;78.30;;;;;;5091414;28;19908;-34
2023/03/12 03:24:38;;;;;;;;;;;4.80;78.30;;;;;;5091368;28;19912;-37
2023/03/12 03:27:04;;;;;;;;;;;4.70;78.20;;;;;;5091259;28;19908;-33
2023/03/12 03:29:29;;;;;;;;;;;4.70;78.00;;;;;;5091051;28;19965;-37
2023/03/12 03:31:55;;;;;;;;;;;4.70;78.00;;;;;;5089825;28;20236;-37
2023/03/12 03:34:20;;;;;;;;;;;4.80;78.10;;;;;;5091410;28;20015;-37
2023/03/12 03:36:45;;;;;;;;;;;4.80;77.90;;;;;;5090979;28;20286;-37
2023/03/12 03:39:11;;;;;;;;;;;4.80;77.80;;;;;;5091261;28;19908;-35
2023/03/12 03:41:37;;;;;;;;;;;4.70;77.90;;;;;;5090944;28;20359;-37
2023/03/12 03:44:04;;;;;;;;;;;4.70;77.90;;;;;;5091231;28;19908;-33
2023/03/12 03:46:29;;;;;;;;;;;4.70;78.10;;;;;;5089631;28;19912;-37
2023/03/12 03:48:55;;;;;;;;;;;4.70;78.30;;;;;;5090914;28;20319;-36
2023/03/12 03:51:21;;;;;;;;;;;4.60;78.10;;;;;;5091107;28;19947;-36
2023/03/12 03:53:47;;;;;;;;;;;4.70;78.20;;;;;;5091153;28;20347;-38
2023/03/12 03:56:13;;;;;;;;;;;4.70;78.10;;;;;;5091300;28;19908;-34
2023/03/12 03:58:39;;;;;;;;;;;4.70;78.00;;;;;;5091129;28;19912;-36
2023/03/12 04:01:05;;;;;;;;;;;4.60;77.90;;;;;;5091134;28;19922;-35
2023/03/12 04:03:31;;;;;;;;;;;4.60;77.80;;;;;;5090926;28;19987;-33
2023/03/12 04:05:58;;;;;;;;;;;4.70;77.90;;;;;;5090949;28;20003;-36
2023/03/12 04:08:24;;;;;;;;;;;4.70;77.80;;;;;;5090931;28;19908;-36
2023/03/12 04:10:50;;;;;;;;;;;4.70;77.70;;;;;;5090888;28;20259;-37
2023/03/12 04:13:15;;;;;;;;;;;4.60;77.60;;;;;;5090741;28;19935;-37
2023/03/12 04:15:47;;;;;;;;;;;4.60;77.70;;;;;;5090776;28;20363;-36
2023/03/12 04:18:13;;;;;;;;;;;4.60;77.70;;;;;;5089462;28;19908;-36
2023/03/12 04:20:38;;;;;;;;;;;4.60;77.90;;;;;;5090898;28;19915;-37
2023/03/12 04:23:04;;;;;;;;;;;4.60;77.80;;;;;;5090779;28;20006;-35
2023/03/12 04:25:29;;;;;;;;;;;4.60;77.70;;;;;;5090691;28;20381;-37
2023/03/12 04:27:55;;;;;;;;;;;4.60;77.80;;;;;;5090705;28;19908;-36
2023/03/12 04:30:20;;;;;;;;;;;4.60;77.80;;;;;;5090690;28;19935;-37
2023/03/12 04:32:46;;;;;;;;;;;4.60;77.70;;;;;;5090544;28;19925;-36
2023/03/12 04:35:11;;;;;;;;;;;4.60;77.70;;;;;;5090560;28;20022;-36
2023/03/12 04:37:37;;;;;;;;;;;4.70;77.80;;;;;;5090597;28;19908;-37
2023/03/12 04:40:06;;;;;;;;;;;4.70;77.70;;;;;;5090720;28;20324;-36
2023/03/12 04:42:33;;;;;;;;;;;4.70;77.70;;;;;;5090543;28;20368;-38
2023/03/12 04:44:58;;;;;;;;;;;4.70;77.70;;;;;;5090419;28;19919;-37
2023/03/12 04:47:23;;;;;;;;;;;4.70;77.80;;;;;;5090432;28;19908;-36
2023/03/12 04:49:49;;;;;;;;;;;4.70;77.80;;;;;;5090482;28;19912;-37
2023/03/12 04:52:16;;;;;;;;;;;4.70;77.80;;;;;;5090436;28;19907;-36
2023/03/12 04:54:42;;;;;;;;;;;4.70;77.80;;;;;;5090361;28;19991;-36
2023/03/12 04:57:07;;;;;;;;;;;4.70;77.80;;;;;;5090272;28;19951;-37
2023/03/12 04:59:33;;;;;;;;;;;4.70;77.80;;;;;;5090334;28;20382;-33
2023/03/12 05:01:58;;;;;;;;;;;4.70;77.80;;;;;;5090302;28;19912;-37
2023/03/12 05:04:24;;;;;;;;;;;4.70;77.80;;;;;;5090126;28;19914;-33
2023/03/12 05:06:49;;;;;;;;;;;4.70;77.80;;;;;;5090942;28;19915;-37
2023/03/12 05:09:15;;;;;;;;;;;4.70;77.80;;;;;;5093773;28;19995;-36
2023/03/12 05:11:40;;;;;;;;;;;4.70;78.30;;;;;;5093814;28;19909;-37
2023/03/12 05:14:06;;;;;;;;;;;4.70;78.50;;;;;;5093705;28;19965;-36
2023/03/12 05:16:31;;;;;;;;;;;4.70;78.60;;;;;;5093838;28;19987;-35
2023/03/12 05:18:57;;;;;;;;;;;4.70;78.50;;;;;;5093914;28;19915;-37
2023/03/12 05:21:22;;;;;;;;;;;4.70;78.40;;;;;;5093837;28;19908;-35
2023/03/12 05:23:47;;;;;;;;;;;4.70;78.30;;;;;;5093701;28;19908;-36
2023/03/12 05:26:23;;;;;;;;;;;4.70;78.40;;;;;;5093714;28;19908;-33
2023/03/12 05:28:49;;;;;;;;;;;4.70;78.50;;;;;;5093512;28;19920;-36
2023/03/12 05:31:15;;;;;;;;;;;4.70;78.60;;;;;;5093578;28;19915;-36
2023/03/12 05:33:40;;;;;;;;;;;4.70;78.50;;;;;;5093421;28;19923;-36
2023/03/12 05:36:08;;;;;;;;;;;4.70;78.70;;;;;;5093112;28;20388;-35
2023/03/12 05:38:34;;;;;;;;;;;4.70;79.60;;;;;;5093576;28;19908;-37
2023/03/12 05:40:59;;;;;;;;;;;4.60;80.30;;;;;;5093370;28;20345;-36
2023/03/12 05:43:25;;;;;;;;;;;4.60;81.10;;;;;;5093474;28;19908;-37
2023/03/12 05:45:52;;;;;;;;;;;4.60;81.90;;;;;;5093623;28;19908;-36
2023/03/12 05:48:17;;;;;;;;;;;4.50;83.10;;;;;;5093686;28;19908;-35
2023/03/12 05:50:43;;;;;;;;;;;4.50;83.70;;;;;;5093459;28;20174;-36
2023/03/12 05:53:09;;;;;;;;;;;4.60;83.70;;;;;;5093163;28;20419;-36
2023/03/12 05:55:35;;;;;;;;;;;4.50;84.50;;;;;;5093065;28;19908;-33
2023/03/12 05:58:01;;;;;;;;;;;4.60;83.70;;;;;;5093198;28;19973;-37
2023/03/12 06:00:26;;;;;;;;;;;4.60;83.70;;;;;;5093127;28;20271;-36
2023/03/12 06:02:52;;;;;;;;;;;4.60;84.60;;;;;;5093104;28;20280;-36
2023/03/12 06:05:17;;;;;;;;;;;4.60;84.60;;;;;;5093019;28;19997;-36
2023/03/12 06:07:43;;;;;;;;;;;4.60;84.30;;;;;;5093170;28;19908;-36
2023/03/12 06:10:09;;;;;;;;;;;4.60;84.40;;;;;;5092864;28;20272;-36
2023/03/12 06:12:34;;;;;;;;;;;4.60;84.90;;;;;;5092937;28;19912;-36
2023/03/12 06:15:00;;;;;;;;;;;4.60;84.70;;;;;;5092898;28;19908;-36
2023/03/12 06:17:27;;;;;;;;;;;4.70;84.40;;;;;;5093068;28;20355;-35
2023/03/12 06:19:52;;;;;;;;;;;4.70;84.00;;;;;;5091863;28;19943;-36
2023/03/12 06:22:18;;;;;;;;;;;4.70;83.70;;;;;;5092805;28;19908;-36
2023/03/12 06:24:46;;;;;;;;;;;4.70;84.40;;;;;;5092934;28;20383;-36
2023/03/12 06:27:12;;;;;;;;;;;4.70;84.80;;;;;;5093046;28;19915;-36
2023/03/12 06:29:37;;;;;;;;;;;4.70;84.70;;;;;;5092238;28;19920;-35
2023/03/12 06:32:03;;;;;;;;;;;4.70;84.90;;;;;;5092351;28;20343;-35
2023/03/12 06:34:29;;;;;;;;;;;4.60;84.60;;;;;;5092463;28;19992;-36
2023/03/12 06:36:54;;;;;;;;;;;4.70;84.30;;;;;;5092329;28;19912;-35
2023/03/12 06:39:20;;;;;;;;;;;4.70;84.10;;;;;;5092850;28;20255;-38
2023/03/12 06:41:45;;;;;;;;;;;4.60;83.80;;;;;;5092631;28;20406;-37
2023/03/12 06:44:11;;;;;;;;;;;4.60;83.60;;;;;;5092899;28;19912;-38
2023/03/12 06:46:36;;;;;;;;;;;4.70;83.60;;;;;;5092464;28;20014;-36
2023/03/12 06:49:02;;;;;;;;;;;4.60;83.60;;;;;;5092507;28;20308;-36
2023/03/12 06:51:28;;;;;;;;;;;4.60;83.60;;;;;;5092376;28;19912;-36
2023/03/12 06:53:53;;;;;;;;;;;4.60;83.50;;;;;;5092197;28;19916;-36
2023/03/12 06:56:19;;;;;;;;;;;4.60;83.50;;;;;;5092148;28;20011;-36
2023/03/12 06:58:44;;;;;;;;;;;4.60;83.40;;;;;;5092484;28;19912;-36
2023/03/12 07:01:10;;;;;;;;;;;4.70;83.40;;;;;;5092216;28;19912;-37
2023/03/12 07:03:36;;;;;;;;;;;4.70;83.20;;;;;;5092041;28;19986;-36
2023/03/12 07:06:02;;;;;;;;;;;4.60;83.20;;;;;;5092186;28;19969;-36
2023/03/12 07:08:29;;;;;;;;;;;4.70;83.20;;;;;;5091899;28;20278;-35
2023/03/12 07:10:56;;;;;;;;;;;4.70;83.20;;;;;;5092137;28;20294;-37
2023/03/12 07:13:21;;;;;;;;;;;4.80;83.30;;;;;;5091783;28;19998;-37
2023/03/12 07:15:47;;;;;;;;;;;4.80;83.10;;;;;;5091674;28;20395;-36
2023/03/12 07:18:12;;;;;;;;;;;4.80;83.00;;;;;;5091911;28;20348;-42
2023/03/12 07:20:39;;;;;;;;;;;4.70;83.00;;;;;;5092147;28;19916;-36
2023/03/12 07:23:05;;;;;;;;;;;4.80;83.10;;;;;;5091878;28;20357;-36
2023/03/12 07:25:33;;;;;;;;;;;4.80;83.00;;;;;;5091658;28;19920;-37
2023/03/12 07:27:58;;;;;;;;;;;4.90;82.90;;;;;;5091517;28;19918;-36
2023/03/12 07:30:24;;;;;;;;;;;4.90;82.80;;;;;;5091442;28;20014;-36
2023/03/12 07:32:49;;;;;;;;;;;5.00;82.90;;;;;;5091390;28;19916;-37
2023/03/12 07:35:15;;;;;;;;;;;5.00;82.80;;;;;;5091248;28;20102;-36
2023/03/12 07:37:40;;;;;;;;;;;5.00;82.80;;;;;;5091273;28;19918;-36
2023/03/12 07:40:06;;;;;;;;;;;5.00;82.70;;;;;;5091372;28;19928;-37
2023/03/12 07:42:32;;;;;;;;;;;5.00;82.90;;;;;;5091402;28;20385;-37
2023/03/12 07:44:58;;;;;;;;;;;5.00;82.90;;;;;;5091255;28;19961;-35
2023/03/12 07:47:23;;;;;;;;;;;5.00;82.90;;;;;;5091287;28;20363;-35
2023/03/12 07:49:49;;;;;;;;;;;5.00;82.90;;;;;;5091170;28;19923;-38
2023/03/12 07:52:16;;;;;;;;;;;5.00;83.00;;;;;;5091074;28;20283;-34
2023/03/12 07:54:42;;;;;;;;;;;5.00;83.10;;;;;;5091184;28;20310;-37
2023/03/12 07:57:07;;;;;;;;;;;5.10;83.20;;;;;;5091129;28;19972;-36
2023/03/12 07:59:33;;;;;;;;;;;5.10;83.10;;;;;;5089708;28;20060;-35
2023/03/12 08:01:59;;;;;;;;;;;5.10;83.20;;;;;;5091135;28;20394;-36
2023/03/12 08:04:24;;;;;;;;;;;5.10;83.30;;;;;;5090884;28;19919;-36
2023/03/12 08:06:50;;;;;;;;;;;5.10;83.30;;;;;;5090982;28;19916;-36
2023/03/12 08:09:15;;;;;;;;;;;5.10;83.30;;;;;;5090828;28;19912;-37
2023/03/12 08:11:41;;;;;;;;;;;5.10;83.40;;;;;;5090908;28;19915;-37
2023/03/12 08:14:06;;;;;;;;;;;5.10;83.40;;;;;;5090714;28;19916;-36
2023/03/12 08:16:32;;;;;;;;;;;5.10;83.40;;;;;;5090915;28;20002;-36
2023/03/12 08:18:57;;;;;;;;;;;5.20;83.50;;;;;;5090875;28;20007;-35
2023/03/12 08:21:23;;;;;;;;;;;5.20;83.50;;;;;;5090879;28;19969;-35
2023/03/12 08:23:48;;;;;;;;;;;5.20;83.50;;;;;;5090784;28;19981;-35
2023/03/12 08:26:14;;;;;;;;;;;5.30;83.50;;;;;;5091034;28;19952;-34
2023/03/12 08:28:39;;;;;;;;;;;5.30;83.50;;;;;;5090602;28;20011;-35
2023/03/12 08:31:05;;;;;;;;;;;5.30;83.60;;;;;;5090733;28;19918;-32
2023/03/12 08:33:30;;;;;;;;;;;5.30;84.00;;;;;;5090476;28;19946;-36
2023/03/12 08:35:56;;;;;;;;;;;5.30;83.70;;;;;;5090938;28;20370;-35
2023/03/12 08:38:22;;;;;;;;;;;5.40;83.80;;;;;;5090638;28;19912;-37
2023/03/12 08:40:57;;;;;;;;;;;5.40;83.90;;;;;;5090606;28;19935;-34
2023/03/12 08:43:22;;;;;;;;;;;5.40;83.90;;;;;;5094074;28;19920;-38
2023/03/12 08:45:52;;;;;;;;;;;5.50;83.90;;;;;;5094510;28;19912;-35
2023/03/12 08:48:17;;;;;;;;;;;5.50;83.90;;;;;;5094287;28;19919;-36
2023/03/12 08:50:43;;;;;;;;;;;5.50;84.00;;;;;;5094377;28;19999;-34
2023/03/12 08:53:08;;;;;;;;;;;5.50;84.00;;;;;;5094348;28;19920;-37
2023/03/12 08:55:34;;;;;;;;;;;5.60;84.10;;;;;;5094207;28;19912;-36
2023/03/12 08:57:59;;;;;;;;;;;5.60;84.10;;;;;;5094127;28;19912;-35
2023/03/12 09:00:25;;;;;;;;;;;5.60;84.10;;;;;;5093927;28;19959;-35
2023/03/12 09:02:52;;;;;;;;;;;5.70;84.30;;;;;;5093821;28;19920;-36
2023/03/12 09:05:18;;;;;;;;;;;5.70;84.30;;;;;;5094057;28;19947;-35
2023/03/12 09:07:43;;;;;;;;;;;5.70;84.30;;;;;;5094092;28;19974;-33
2023/03/12 09:10:09;;;;;;;;;;;5.80;84.40;;;;;;5094069;28;19984;-35
2023/03/12 09:12:35;;;;;;;;;;;5.80;84.40;;;;;;5093872;28;20280;-34
2023/03/12 09:15:00;;;;;;;;;;;5.90;84.40;;;;;;5093928;28;19913;-34
2023/03/12 09:17:27;;;;;;;;;;;5.90;84.50;;;;;;5093841;28;20234;-38
2023/03/12 09:19:52;;;;;;;;;;;5.90;84.50;;;;;;5093867;28;19912;-36
2023/03/12 09:22:18;;;;;;;;;;;6.00;84.60;;;;;;5093769;28;19912;-35
2023/03/12 09:24:43;;;;;;;;;;;6.00;84.60;;;;;;5093892;28;20368;-32
2023/03/12 09:27:09;;;;;;;;;;;6.00;84.60;;;;;;5092361;28;19923;-35
2023/03/12 09:29:35;;;;;;;;;;;6.10;84.80;;;;;;5092172;28;19920;-35
2023/03/12 09:32:01;;;;;;;;;;;6.10;84.80;;;;;;5093847;28;20361;-37
2023/03/12 09:34:26;;;;;;;;;;;6.10;84.90;;;;;;5093725;28;19916;-36
2023/03/12 09:36:51;;;;;;;;;;;6.10;84.90;;;;;;5093673;28;19980;-37
2023/03/12 09:39:19;;;;;;;;;;;6.20;85.00;;;;;;5093394;28;20023;-39
2023/03/12 09:41:46;;;;;;;;;;;6.10;85.10;;;;;;5093619;28;20287;-34
2023/03/12 09:44:12;;;;;;;;;;;6.20;85.20;;;;;;5093490;28;19942;-37
2023/03/12 09:46:41;;;;;;;;;;;6.20;85.20;;;;;;5091829;28;19916;-36
2023/03/12 09:49:15;;;;;;;;;;;6.30;85.30;;;;;;5093284;28;19998;-36
2023/03/12 09:51:42;;;;;;;;;;;6.30;85.40;;;;;;5093342;28;19912;-36
2023/03/12 09:54:15;;;;;;;;;;;6.40;85.40;;;;;;5093185;28;20011;-38
2023/03/12 09:56:41;;;;;;;;;;;6.50;85.40;;;;;;5093273;28;19916;-38
2023/03/12 09:59:12;;;;;;;;;;;6.60;85.50;;;;;;5093255;28;19912;-29
2023/03/12 10:01:38;;;;;;;;;;;6.60;85.40;;;;;;5093172;28;20494;-32
2023/03/12 10:04:23;;;;;;;;;;;6.70;85.50;;;;;;5093130;28;19996;-37
2023/03/12 10:06:52;;;;;;;;;;;6.70;85.50;;;;;;5093183;28;19912;-28
2023/03/12 10:09:20;;;;;;;;;;;6.80;85.60;;;;;;5092917;28;20309;-32
2023/03/12 10:11:51;;;;;;;;;;;6.80;85.80;;;;;;5092972;28;19916;-33
2023/03/12 10:14:35;;;;;;;;;;;6.90;86.00;;;;;;5092791;28;20241;-37
2023/03/12 10:17:08;;;;;;;;;;;6.90;86.00;;;;;;5092711;28;19977;-32
2023/03/12 10:19:54;;;;;;;;;;;7.00;86.00;;;;;;5092912;28;19912;-34
2023/03/12 10:22:28;;;;;;;;;;;7.00;86.00;;;;;;5092656;28;19984;-34
2023/03/12 10:25:17;;;;;;;;;;;7.10;86.40;;;;;;5092668;28;19912;-32
2023/03/12 10:27:43;;;;;;;;;;;7.10;86.30;;;;;;5092638;28;19928;-29
2023/03/12 10:30:14;;;;;;;;;;;7.10;86.30;;;;;;5092416;28;19943;-33
2023/03/12 10:32:41;;;;;;;;;;;7.20;86.50;;;;;;5092442;28;20002;-28
2023/03/12 10:35:17;;;;;;;;;;;7.20;86.60;;;;;;5092820;28;19940;-40
2023/03/12 10:37:51;;;;;;;;;;;7.20;86.60;;;;;;5092251;28;19919;-32
2023/03/12 10:40:20;;;;;;;;;;;7.30;87.00;;;;;;5092647;28;20372;-38
2023/03/12 10:42:47;;;;;;;;;;;7.30;87.20;;;;;;5092360;28;19959;-32
2023/03/12 10:45:16;;;;;;;;;;;7.40;87.40;;;;;;5092301;28;19935;-32
2023/03/12 10:47:42;;;;;;;;;;;7.40;87.20;;;;;;5092164;28;19920;-29
2023/03/12 10:50:14;;;;;;;;;;;7.50;88.00;;;;;;5092159;28;20394;-31
2023/03/12 10:52:40;;;;;;;;;;;7.50;87.60;;;;;;5091870;28;20014;-33
2023/03/12 10:55:25;;;;;;;;;;;7.60;87.90;;;;;;5091870;28;20049;-32
2023/03/12 10:57:52;;;;;;;;;;;7.70;87.80;;;;;;5091985;28;20359;-29
2023/03/12 11:00:19;;;;;;;;;;;7.80;87.70;;;;;;5091825;28;19923;-32
2023/03/12 11:02:46;;;;;;;;;;;7.80;87.60;;;;;;5091988;28;19919;-30
2023/03/12 11:05:19;;;;;;;;;;;7.90;87.60;;;;;;5091225;28;19928;-29
2023/03/12 11:07:45;;;;;;;;;;;8.00;87.70;;;;;;5091723;28;19919;-37
2023/03/12 11:10:12;;;;;;;;;;;8.00;87.70;;;;;;5091408;28;19913;-30
2023/03/12 11:12:38;;;;;;;;;;;8.10;87.80;;;;;;5091482;28;19920;-33
2023/03/12 11:15:18;;;;;;;;;;;8.10;88.00;;;;;;5091878;28;19962;-30
2023/03/12 11:17:43;;;;;;;;;;;8.10;88.10;;;;;;5091856;28;19912;-33
2023/03/12 11:20:24;;;;;;;;;;;8.20;88.10;;;;;;5091572;28;19923;-32
2023/03/12 11:22:49;;;;;;;;;;;8.20;88.30;;;;;;5091431;28;19963;-33
2023/03/12 11:25:26;;;;;;;;;;;8.30;89.10;;;;;;5091940;28;19912;-31
2023/03/12 11:27:53;;;;;;;;;;;8.30;89.30;;;;;;5091691;28;19948;-31
2023/03/12 11:30:22;;;;;;;;;;;8.40;89.20;;;;;;5091089;28;19927;-34
2023/03/12 11:32:48;;;;;;;;;;;8.50;90.10;;;;;;5091326;28;19920;-32
2023/03/12 11:35:15;;;;;;;;;;;8.50;90.00;;;;;;5091378;28;20367;-37
2023/03/12 11:37:59;;;;;;;;;;;8.60;90.20;;;;;;5091133;28;19935;-31
2023/03/12 11:40:27;;;;;;;;;;;8.60;90.50;;;;;;5091424;28;19913;-35
2023/03/12 11:42:53;;;;;;;;;;;8.70;90.40;;;;;;5091004;28;20015;-30
2023/03/12 11:45:21;;;;;;;;;;;8.80;90.50;;;;;;5089477;28;19959;-33
2023/03/12 11:48:05;;;;;;;;;;;8.80;91.00;;;;;;5090912;28;19912;-32
2023/03/12 11:50:54;;;;;;;;;;;8.90;90.70;;;;;;5091015;28;20398;-29
2023/03/12 11:53:23;;;;;;;;;;;9.00;90.60;;;;;;5090995;28;19916;-33
2023/03/12 11:55:55;;;;;;;;;;;9.00;90.60;;;;;;5089701;28;19943;-32
2023/03/12 11:58:30;;;;;;;;;;;9.10;90.60;;;;;;5090826;28;20361;-29
2023/03/12 12:01:02;;;;;;;;;;;9.20;90.60;;;;;;5090985;28;19912;-29
2023/03/12 12:03:40;;;;;;;;;;;9.20;90.80;;;;;;5090984;28;20382;-28
2023/03/12 12:06:11;;;;;;;;;;;9.30;90.80;;;;;;5090914;28;19912;-30
2023/03/12 12:08:55;;;;;;;;;;;9.30;90.80;;;;;;5090933;28;19999;-29
2023/03/12 12:11:40;;;;;;;;;;;9.40;91.00;;;;;;5090939;28;19911;-33
2023/03/12 12:14:17;;;;;;;;;;;9.40;91.00;;;;;;5091017;28;19916;-36
2023/03/12 12:16:43;;;;;;;;;;;9.50;91.00;;;;;;5091590;28;19919;-29
2023/03/12 12:19:21;;;;;;;;;;;9.60;91.00;;;;;;5095200;28;19916;-27
2023/03/12 12:22:06;;;;;;;;;;;9.70;91.30;;;;;;5095089;28;19912;-30
2023/03/12 12:24:38;;;;;;;;;;;9.70;91.20;;;;;;5094683;28;20333;-29
2023/03/12 12:27:12;;;;;;;;;;;9.80;91.40;;;;;;5095062;28;20002;-31
2023/03/12 12:29:56;;;;;;;;;;;9.80;91.30;;;;;;5094876;28;19924;-33
2023/03/12 12:32:42;;;;;;;;;;;9.90;91.40;;;;;;5095275;28;19912;-30
2023/03/12 12:35:18;;;;;;;;;;;9.90;91.40;;;;;;5087441;28;19978;-30
2023/03/12 12:37:46;;;;;;;;;;;10.00;91.50;;;;;;5094788;28;19912;-30
2023/03/12 12:40:18;;;;;;;;;;;10.00;91.50;;;;;;5094567;28;19973;-30
2023/03/12 12:42:51;;;;;;;;;;;10.00;91.40;;;;;;5094937;28;19913;-29
2023/03/12 12:45:17;;;;;;;;;;;10.00;91.40;;;;;;5094695;28;19922;-35
2023/03/12 12:47:48;;;;;;;;;;;10.10;91.40;;;;;;5094687;28;19912;-30
2023/03/12 12:50:21;;;;;;;;;;;10.10;91.40;;;;;;5094553;28;19915;-30
2023/03/12 12:52:52;;;;;;;;;;;10.00;91.30;;;;;;5094397;28;19993;-31
2023/03/12 12:55:26;;;;;;;;;;;10.00;91.30;;;;;;5094217;28;20290;-31
2023/03/12 12:58:03;;;;;;;;;;;10.00;91.30;;;;;;5094176;28;19912;-29
2023/03/12 13:00:36;;;;;;;;;;;10.10;91.30;;;;;;5094232;28;19918;-34
2023/03/12 13:03:03;;;;;;;;;;;10.10;91.20;;;;;;5094251;28;19912;-31
2023/03/12 13:05:34;;;;;;;;;;;10.20;91.20;;;;;;5094277;28;19912;-34
2023/03/12 13:08:00;;;;;;;;;;;10.20;91.10;;;;;;5094105;28;20299;-36
2023/03/12 13:10:31;;;;;;;;;;;10.20;91.10;;;;;;5094048;28;19912;-27
2023/03/12 13:12:58;;;;;;;;;;;10.20;91.10;;;;;;5094033;28;19968;-30
2023/03/12 13:15:29;;;;;;;;;;;10.20;91.00;;;;;;5093989;28;19919;-28
2023/03/12 13:17:54;;;;;;;;;;;10.20;91.00;;;;;;5092524;28;20011;-32
2023/03/12 13:20:21;;;;;;;;;;;10.20;91.00;;;;;;5093810;28;19967;-35
2023/03/12 13:22:55;;;;;;;;;;;10.20;90.90;;;;;;5093931;28;19981;-31
2023/03/12 13:25:29;;;;;;;;;;;10.30;90.90;;;;;;5093847;28;20343;-37
2023/03/12 13:27:59;;;;;;;;;;;10.30;90.80;;;;;;5093390;28;19912;-28
2023/03/12 13:30:34;;;;;;;;;;;10.30;90.80;;;;;;5094060;28;19927;-31
2023/03/12 13:33:00;;;;;;;;;;;10.40;90.70;;;;;;5094066;28;19920;-32
2023/03/12 13:35:26;;;;;;;;;;;10.50;90.60;;;;;;5092875;28;20006;-33
2023/03/12 13:37:51;;;;;;;;;;;10.60;90.50;;;;;;5094143;28;19964;-32
2023/03/12 13:40:29;;;;;;;;;;;10.70;90.20;;;;;;5094109;28;19912;-31
2023/03/12 13:43:06;;;;;;;;;;;10.70;90.30;;;;;;5093949;28;20299;-35
2023/03/12 13:45:34;;;;;;;;;;;10.80;90.00;;;;;;5093792;28;20032;-34
2023/03/12 13:48:01;;;;;;;;;;;10.80;89.70;;;;;;5092532;28;20394;-35
2023/03/12 13:50:28;;;;;;;;;;;10.90;89.70;;;;;;5093823;28;20272;-34
2023/03/12 13:52:59;;;;;;;;;;;11.00;89.50;;;;;;5093696;28;20264;-33
2023/03/12 13:55:28;;;;;;;;;;;11.00;89.00;;;;;;5093726;28;19977;-34
2023/03/12 13:58:20;;;;;;;;;;;11.10;89.20;;;;;;5093655;28;19951;-34
2023/03/12 14:00:55;;;;;;;;;;;11.10;88.60;;;;;;5093798;28;19918;-35
2023/03/12 14:03:25;;;;;;;;;;;11.10;87.10;;;;;;5093517;28;19980;-33
2023/03/12 14:05:55;;;;;;;;;;;11.10;87.40;;;;;;5093294;28;20015;-35
2023/03/12 14:08:32;;;;;;;;;;;11.20;87.20;;;;;;5093317;28;19912;-31
2023/03/12 14:11:03;;;;;;;;;;;11.30;87.00;;;;;;5093227;28;19946;-34
2023/03/12 14:13:28;;;;;;;;;;;11.40;86.90;;;;;;5093312;28;19916;-33
2023/03/12 14:16:03;;;;;;;;;;;11.60;86.90;;;;;;5093362;28;20314;-33
2023/03/12 14:18:29;;;;;;;;;;;11.70;85.80;;;;;;5093404;28;19969;-33
2023/03/12 14:20:57;;;;;;;;;;;11.80;85.50;;;;;;5093445;28;19970;-33
2023/03/12 14:23:25;;;;;;;;;;;11.90;85.50;;;;;;5093323;28;19935;-33
2023/03/12 14:25:55;;;;;;;;;;;11.90;85.10;;;;;;5093484;28;19912;-37
2023/03/12 14:28:21;;;;;;;;;;;12.00;84.30;;;;;;5093255;28;19995;-33
2023/03/12 14:31:02;;;;;;;;;;;12.00;84.10;;;;;;5093097;28;19912;-33
2023/03/12 14:33:33;;;;;;;;;;;12.10;83.40;;;;;;5093011;28;19916;-37